Time;durP1;ratioP1;P1;durP2;ratioP2;P2;SDS_P1;SDS_P2;PMS_P1;PMS_P2;Temp;Humidity;BMP_temperature;BMP_pressure;BME280_temperature;BME280_humidity;BME280_pressure;Samples;Min_cycle;Max_cycle;Signal;HPM_P1;HPM_P2
2021/10/23 00:07:17;;;;;;;11.90;4.32;;;;;;;7.54;83.63;101359.09;20814871;28;20053;-69
2021/10/23 00:17:19;;;;;;;13.57;3.72;;;;;;;7.64;83.33;101350.53;20816366;28;20049;-68
2021/10/23 00:27:20;;;;;;;9.70;3.60;;;;;;;7.66;83.52;101348.81;20828001;28;20041;-69
2021/10/23 00:37:22;;;;;;;14.02;3.72;;;;;;;7.63;83.13;101357.47;20827801;28;20049;-69
2021/10/23 00:47:23;;;;;;;11.23;3.97;;;;;;;7.67;83.67;101361.00;20828974;28;20497;-69
2021/10/23 00:57:25;;;;;;;10.75;3.97;;;;;;;7.68;83.60;101358.41;20826735;28;20438;-69
2021/10/23 01:07:26;;;;;;;8.90;3.17;;;;;;;7.67;83.44;101376.66;20825519;28;20103;-69
2021/10/23 01:17:28;;;;;;;11.73;3.50;;;;;;;7.71;84.01;101386.22;20826339;28;20053;-69
2021/10/23 01:27:30;;;;;;;7.82;3.35;;;;;;;7.75;84.07;101384.53;20827362;28;20461;-69
2021/10/23 01:37:47;;;;;;;8.85;2.92;;;;;;;7.74;84.63;101386.28;20823782;28;20054;-69
2021/10/23 01:47:48;;;;;;;9.80;3.50;;;;;;;7.72;84.97;101388.00;20822838;28;20078;-69
2021/10/23 01:57:49;;;;;;;12.05;3.30;;;;;;;7.68;84.62;101394.03;20821666;28;20058;-68
2021/10/23 02:07:51;;;;;;;12.80;3.83;;;;;;;7.64;85.22;101397.44;20821031;28;20158;-68
2021/10/23 02:17:52;;;;;;;17.30;3.70;;;;;;;7.62;85.58;101393.97;20819988;28;20085;-68
2021/10/23 02:27:54;;;;;;;12.50;3.60;;;;;;;7.62;85.84;101400.03;20819977;28;20050;-68
2021/10/23 02:37:56;;;;;;;12.40;4.47;;;;;;;7.61;85.53;101400.00;20818638;28;20054;-69
2021/10/23 02:47:58;;;;;;;10.48;3.67;;;;;;;7.63;85.69;101412.22;20818411;28;20045;-69
2021/10/23 02:57:59;;;;;;;8.75;3.55;;;;;;;7.60;85.49;101411.28;20818232;28;20053;-69
2021/10/23 03:08:01;;;;;;;12.93;3.47;;;;;;;7.59;86.05;101413.03;20817125;28;20659;-69
2021/10/23 03:18:03;;;;;;;9.15;4.05;;;;;;;7.55;85.84;101423.38;20817127;28;20053;-69
2021/10/23 03:28:04;;;;;;;13.15;3.90;;;;;;;7.45;86.86;101418.06;20816484;28;20053;-69
2021/10/23 03:38:06;;;;;;;9.70;3.67;;;;;;;7.35;86.78;101405.75;20815387;28;20069;-68
2021/10/23 03:48:07;;;;;;;9.18;3.88;;;;;;;7.23;87.25;101421.22;20816359;28;20499;-68
2021/10/23 03:58:10;;;;;;;15.27;4.00;;;;;;;7.15;87.37;101428.94;20823561;28;20111;-68
2021/10/23 04:08:11;;;;;;;14.95;4.68;;;;;;;7.08;87.61;101421.00;20830385;28;20481;-69
2021/10/23 04:18:13;;;;;;;13.23;4.53;;;;;;;6.97;87.80;101428.66;20829350;28;20057;-69
2021/10/23 04:28:14;;;;;;;15.35;5.13;;;;;;;6.87;88.00;101434.56;20829640;28;20461;-68
2021/10/23 04:38:17;;;;;;;13.48;4.57;;;;;;;6.74;88.83;101430.00;20827800;28;20131;-69
2021/10/23 04:48:18;;;;;;;14.10;4.65;;;;;;;6.56;89.09;101431.44;20827611;28;20072;-68
2021/10/23 04:58:20;;;;;;;12.40;5.13;;;;;;;6.42;89.43;101438.16;20826870;28;20494;-69
2021/10/23 05:08:21;;;;;;;10.82;4.43;;;;;;;6.29;90.09;101455.25;20825084;28;20049;-68
2021/10/23 05:18:23;;;;;;;12.13;4.60;;;;;;;6.26;89.48;101449.97;20826973;28;20104;-69
2021/10/23 05:28:24;;;;;;;16.90;5.50;;;;;;;6.20;89.49;101468.09;20825272;28;20053;-68
2021/10/23 05:38:26;;;;;;;11.77;4.90;;;;;;;6.14;90.22;101470.56;20823258;28;20061;-68
2021/10/23 05:48:28;;;;;;;15.13;4.72;;;;;;;6.01;89.88;101491.97;20822916;28;20069;-68
2021/10/23 05:58:30;;;;;;;11.90;4.50;;;;;;;5.84;90.68;101500.22;20822485;28;20054;-68
2021/10/23 06:08:36;;;;;;;11.85;5.00;;;;;;;5.75;90.78;101523.47;20820961;28;20041;-68
2021/10/23 06:18:38;;;;;;;12.57;5.28;;;;;;;5.66;90.88;101524.13;20819199;28;20049;-68
2021/10/23 06:28:39;;;;;;;12.80;5.78;;;;;;;5.64;91.54;101517.13;20819872;28;20049;-68
2021/10/23 06:38:41;;;;;;;11.57;5.60;;;;;;;5.69;91.28;101531.09;20818767;28;20558;-70
2021/10/23 06:48:42;;;;;;;11.98;5.68;;;;;;;5.81;91.33;101515.78;20818560;28;20129;-69
2021/10/23 06:58:44;;;;;;;11.80;5.90;;;;;;;5.91;90.90;101548.97;20815473;28;20190;-70
2021/10/23 07:08:46;;;;;;;17.30;7.63;;;;;;;6.13;90.60;101552.00;20816166;28;20099;-67
2021/10/23 07:18:47;;;;;;;18.95;7.68;;;;;;;6.31;89.91;101575.78;20810987;28;20103;-67
2021/10/23 07:28:49;;;;;;;14.98;5.85;;;;;;;6.66;88.89;101609.47;20814838;28;20053;-67
2021/10/23 07:38:50;;;;;;;14.02;5.28;;;;;;;7.14;86.11;101629.47;20822950;28;20041;-67
2021/10/23 07:48:52;;;;;;;17.85;5.70;;;;;;;7.67;84.21;101616.47;20825904;28;20095;-67
2021/10/23 07:58:53;;;;;;;10.40;5.00;;;;;;;7.93;82.64;101622.06;20824914;28;20544;-68
2021/10/23 08:08:55;;;;;;;12.23;5.57;;;;;;;8.08;81.19;101624.00;20822480;28;20044;-68
2021/10/23 08:18:56;;;;;;;10.15;4.57;;;;;;;8.16;80.59;101627.59;20746008;28;20483;-68
2021/10/23 08:28:58;;;;;;;12.50;4.05;;;;;;;8.43;79.82;101630.63;20742057;28;20042;-68
2021/10/23 08:38:59;;;;;;;10.80;3.75;;;;;;;8.73;78.43;101642.28;20736997;28;20100;-68
2021/10/23 08:49:02;;;;;;;9.20;4.00;;;;;;;8.97;78.18;101633.84;20740485;28;20398;-68
2021/10/23 08:59:04;;;;;;;10.23;3.72;;;;;;;9.27;78.74;101635.88;20738182;28;20070;-68
2021/10/23 09:09:11;;;;;;;9.23;4.43;;;;;;;9.57;77.30;101642.25;20738131;28;20052;-68
2021/10/23 09:19:13;;;;;;;11.10;4.78;;;;;;;9.72;76.77;101650.19;20811077;28;20461;-68
2021/10/23 09:29:24;;;;;;;12.50;4.00;;;;;;;9.96;76.70;101639.91;20819482;28;20269;-68
2021/10/23 09:39:45;;;;;;;10.43;4.43;;;;;;;10.37;74.11;101641.94;20814827;28;20075;-68
2021/10/23 09:50:06;;;;;;;10.02;4.13;;;;;;;10.52;73.69;101656.84;20816991;28;20473;-68
2021/10/23 10:00:09;;;;;;;13.68;5.15;;;;;;;10.50;73.28;101654.25;20814191;28;20495;-68
2021/10/23 10:10:11;;;;;;;9.43;4.60;;;;;;;10.67;72.65;101648.19;20814976;28;20038;-68
2021/10/23 10:20:13;;;;;;;10.73;4.70;;;;;;;10.91;70.98;101637.78;20813311;28;20050;-68
2021/10/23 10:30:29;;;;;;;12.82;4.75;;;;;;;11.00;70.87;101645.66;20812955;28;20046;-69
2021/10/23 10:50:45;;;;;;;8.73;3.42;;;;;;;11.97;66.25;101617.75;20812394;28;20041;-68
2021/10/23 11:00:49;;;;;;;5.93;2.60;;;;;;;12.49;66.33;101607.09;20812270;28;20060;-68
2021/10/23 11:10:58;;;;;;;9.47;2.80;;;;;;;13.15;63.58;101595.31;20808937;28;20095;-68
2021/10/23 11:20:59;;;;;;;9.90;2.80;;;;;;;13.52;61.49;101617.00;20809803;28;20548;-66
2021/10/23 11:31:01;;;;;;;5.63;2.22;;;;;;;13.65;61.48;101594.06;20809463;28;20521;-68
2021/10/23 11:41:04;;;;;;;7.07;2.75;;;;;;;13.18;61.79;101593.56;20808116;28;20049;-67
2021/10/23 11:51:05;;;;;;;9.57;2.97;;;;;;;13.04;62.06;101598.03;20809524;28;20100;-68
2021/10/23 12:01:16;;;;;;;8.95;4.28;;;;;;;12.86;62.92;101609.53;20810428;28;20095;-67
2021/10/23 12:11:23;;;;;;;7.90;3.17;;;;;;;12.53;62.75;101608.81;20809640;28;20041;-67
2021/10/23 12:21:25;;;;;;;101.30;46.30;;;;;;;13.09;63.65;101594.50;20819341;28;20085;-67
2021/10/23 12:32:00;;;;;;;8.60;3.20;;;;;;;13.32;61.32;101588.22;20822454;28;20053;-67
2021/10/23 12:42:01;;;;;;;6.43;1.80;;;;;;;13.33;60.07;101592.59;20821385;28;20136;-67
2021/10/23 12:52:03;;;;;;;6.60;2.75;;;;;;;13.10;61.37;101595.34;20820738;28;20053;-67
2021/10/23 13:02:04;;;;;;;6.80;2.92;;;;;;;13.39;60.23;101599.56;20818819;28;20057;-67
2021/10/23 13:12:07;;;;;;;7.72;2.60;;;;;;;13.28;58.93;101594.41;20819051;28;20095;-68
2021/10/23 13:22:08;;;;;;;6.70;2.33;;;;;;;13.36;58.01;101603.06;20817551;28;20387;-67
2021/10/23 13:32:10;;;;;;;18.25;11.02;;;;;;;13.39;59.78;101605.69;20817534;28;20190;-67
2021/10/23 13:42:12;;;;;;;9.95;3.05;;;;;;;13.26;57.55;101611.94;20816136;28;20057;-68
2021/10/23 13:52:14;;;;;;;5.78;2.70;;;;;;;12.96;61.24;101608.59;20815373;28;20490;-68
2021/10/23 14:02:15;;;;;;;11.82;3.50;;;;;;;12.80;62.88;101617.47;20813408;28;20095;-67
2021/10/23 14:12:20;;;;;;;6.13;3.03;;;;;;;12.84;62.37;101619.19;20793342;28;20054;-67
2021/10/23 14:22:22;;;;;;;8.43;3.53;;;;;;;12.73;62.73;101621.84;20730790;28;20089;-67
2021/10/23 14:32:24;;;;;;;12.18;5.53;;;;;;;12.83;60.69;101620.06;20730218;28;20046;-67
2021/10/23 14:42:25;;;;;;;18.25;9.90;;;;;;;12.83;60.56;101620.06;20729284;28;20056;-68
2021/10/23 14:52:27;;;;;;;13.57;4.00;;;;;;;12.57;59.93;101617.56;20728017;28;20132;-68
2021/10/23 15:02:28;;;;;;;9.98;4.22;;;;;;;12.39;57.67;101615.88;20728233;28;20184;-67
2021/10/23 15:12:33;;;;;;;7.85;3.80;;;;;;;12.22;59.23;101618.59;20750721;28;20096;-68
2021/10/23 15:22:35;;;;;;;23.50;13.55;;;;;;;11.95;61.71;101619.50;20810484;28;20049;-67
2021/10/23 15:32:46;;;;;;;8.73;4.38;;;;;;;11.72;62.71;101611.63;20809616;28;20569;-68
2021/10/23 15:42:49;;;;;;;10.27;4.78;;;;;;;11.51;63.30;101606.41;20809245;28;20465;-68
2021/10/23 15:52:51;;;;;;;27.48;14.00;;;;;;;11.36;64.97;101598.56;20816186;28;20037;-68
2021/10/23 16:02:52;;;;;;;17.30;9.65;;;;;;;10.94;66.58;101608.97;20822865;28;20092;-68
2021/10/23 16:12:54;;;;;;;12.60;6.47;;;;;;;10.68;69.64;101608.91;20823413;28;20081;-68
2021/10/23 16:22:58;;;;;;;8.13;3.80;;;;;;;10.24;73.68;101620.06;20823673;28;20091;-68
2021/10/23 16:32:59;;;;;;;16.52;8.52;;;;;;;9.79;76.44;101618.00;20821465;28;20045;-68
2021/10/23 16:43:02;;;;;;;11.25;5.40;;;;;;;9.41;78.50;101622.94;20823029;28;20041;-68
2021/10/23 16:53:23;;;;;;;7.00;2.80;;;;;;;9.04;79.47;101626.94;20821641;28;20080;-68
2021/10/23 17:03:25;;;;;;;6.28;2.15;;;;;;;8.59;81.67;101638.63;20817764;28;20045;-68
2021/10/23 17:13:26;;;;;;;7.85;2.33;;;;;;;8.23;82.89;101647.69;20820437;28;20042;-67
2021/10/23 17:23:28;;;;;;;9.85;2.70;;;;;;;8.09;82.81;101642.28;20819523;28;20418;-67
2021/10/23 17:33:30;;;;;;;7.25;2.75;;;;;;;7.90;83.75;101646.34;20816750;28;20473;-67
2021/10/23 17:43:31;;;;;;;9.57;2.85;;;;;;;7.80;83.86;101662.69;20817363;28;20045;-68
2021/10/23 17:53:33;;;;;;;6.85;3.58;;;;;;;7.68;84.52;101655.56;20816167;28;20387;-68
2021/10/23 18:03:35;;;;;;;10.40;5.15;;;;;;;7.59;84.10;101672.78;20813691;28;20460;-68
2021/10/23 18:13:38;;;;;;;11.93;5.93;;;;;;;7.49;84.06;101678.69;20812594;28;20144;-68
2021/10/23 18:23:40;;;;;;;12.55;6.25;;;;;;;7.38;84.34;101682.00;20813504;28;20053;-68
2021/10/23 18:33:41;;;;;;;11.75;5.65;;;;;;;7.22;85.15;101674.72;20811821;28;20049;-68
2021/10/23 18:43:43;;;;;;;15.60;6.50;;;;;;;7.02;86.17;101671.75;20811597;28;20103;-68
2021/10/23 18:53:44;;;;;;;11.77;5.88;;;;;;;6.85;86.58;101667.94;20810561;28;20053;-68
2021/10/23 19:03:46;;;;;;;11.93;6.90;;;;;;;6.65;87.35;101659.72;20810676;28;20049;-68
2021/10/23 19:13:47;;;;;;;11.50;7.32;;;;;;;6.51;87.65;101650.75;20809404;28;20049;-67
2021/10/23 19:23:49;;;;;;;12.50;7.13;;;;;;;6.40;87.88;101653.16;20812393;28;20053;-67
2021/10/23 19:33:51;;;;;;;18.67;8.35;;;;;;;6.33;87.74;101644.34;20837055;28;20490;-68
2021/10/23 19:43:52;;;;;;;16.17;8.88;;;;;;;6.22;88.38;101643.22;20835998;28;20053;-68
2021/10/23 19:53:54;;;;;;;15.50;9.10;;;;;;;6.07;88.67;101651.56;20835792;28;20049;-68
2021/10/23 20:03:56;;;;;;;18.23;9.45;;;;;;;5.99;88.60;101636.63;20834406;28;20481;-68
2021/10/23 20:13:57;;;;;;;14.40;8.13;;;;;;;5.83;89.27;101648.34;20834995;28;20053;-68
2021/10/23 20:24:00;;;;;;;14.07;8.48;;;;;;;5.68;89.01;101648.88;20835176;28;20103;-68
2021/10/23 20:34:02;;;;;;;15.43;9.27;;;;;;;5.51;89.86;101650.16;20833421;28;20041;-68
2021/10/23 20:44:06;;;;;;;13.63;9.05;;;;;;;5.47;89.70;101653.56;20819813;28;20452;-68
2021/10/23 20:54:08;;;;;;;20.80;9.47;;;;;;;5.39;88.72;101662.00;20820955;28;20494;-68
2021/10/23 21:04:09;;;;;;;18.75;10.20;;;;;;;5.31;89.70;101673.03;20820048;28;20046;-67
2021/10/23 21:14:13;;;;;;;18.73;10.18;;;;;;;5.20;89.44;101670.16;20818936;28;20088;-68
2021/10/23 21:24:15;;;;;;;21.35;11.38;;;;;;;5.17;89.73;101657.09;20817495;28;20387;-67
2021/10/23 21:34:16;;;;;;;24.13;12.88;;;;;;;5.21;89.40;101651.16;20816953;28;20083;-67
2021/10/23 21:44:18;;;;;;;19.02;10.32;;;;;;;5.22;89.28;101650.34;20815580;28;20056;-68
2021/10/23 21:54:19;;;;;;;20.27;8.60;;;;;;;5.15;89.04;101661.38;20814836;28;20115;-67
2021/10/23 22:04:21;;;;;;;17.15;9.18;;;;;;;5.07;88.52;101649.91;20815185;28;20050;-68
2021/10/23 22:14:22;;;;;;;18.58;8.52;;;;;;;4.99;88.85;101654.03;20821530;28;20111;-68
2021/10/23 22:24:24;;;;;;;14.80;7.55;;;;;;;4.94;88.90;101650.44;20820275;28;20458;-68
2021/10/23 22:34:25;;;;;;;15.98;7.68;;;;;;;5.02;88.32;101633.31;20818902;28;20056;-68
2021/10/23 22:44:27;;;;;;;15.38;8.13;;;;;;;5.12;87.88;101630.13;20819848;28;20064;-68
2021/10/23 22:54:29;;;;;;;14.60;8.18;;;;;;;5.06;88.31;101623.06;20817144;28;20062;-67
2021/10/23 23:04:31;;;;;;;14.73;8.23;;;;;;;5.05;87.63;101617.84;20816506;28;20053;-67
2021/10/23 23:14:37;;;;;;;17.00;7.70;;;;;;;4.87;87.71;101623.41;20818395;28;20104;-68
2021/10/23 23:24:39;;;;;;;14.43;7.80;;;;;;;4.93;87.48;101614.91;20815503;28;20061;-68
2021/10/23 23:34:40;;;;;;;15.32;8.23;;;;;;;4.82;87.04;101605.13;20815192;28;20046;-69
2021/10/23 23:44:42;;;;;;;16.50;8.20;;;;;;;4.82;87.47;101599.94;20814742;28;20115;-69
2021/10/23 23:54:43;;;;;;;19.25;8.10;;;;;;;4.69;86.67;101587.47;20814746;28;20045;-69
